Site contains unofficial IBTrACS data. Visit the IBTrACS Website to access archived data.

1972 Severe Tropical Cyclone GAIL (1972102S13154)


IBTrACS version v04r00. Visit IBTrACS website for data access.
Please direct all questions to the IBTrACS Q and A forum

Storm track - Intensity - Wind Radii - Intensity Data - Source Data - All data

Summary Information

Storm ID 1972102S13154
Start Apr 11 00Z
Max Intensity 105 kt (Apr 14 00Z), 945 mb (Apr 13 23Z)
End Apr 20 12Z
ATCF IDs ,SH291972
Track status Best track data.

Storm track plot

Map of storm track

Intensity plots

Map of storm track

Radial wind information

No radial wind information for this storm


Position and Intensity Table

BASIN ISO_TIME_________ NATURE LAT LON WMO WIND WMO PRES USA WIND BOM PRES WELLINGTON WIND WELLINGTON PRES DS824 WIND DS824 PRES TD9636 WIND NEUMANN WIND NEUMANN PRES
degrees north degrees east kts mb kts mb kts mb kts mb kts kts mb
SP 1972-04-11 00:00:00 TS -12.80 154.20 20
SP 02:00:00 TS -12.82 154.17 1004 23 1004
SP 03:00:00 TS -12.84 154.14 25 1003
SP 05:00:00 TS -12.88 154.11 1001 28 1001
SP 06:00:00 TS -12.91 154.12 30 1000 30 1001 25 1002
SP 08:00:00 TS -12.97 154.12 1000 30 1000 30 1000 33 26 1001
SP 09:00:00 TS -12.97 154.12 1000 30 1000 30 1000 31 27 1001
SP 11:00:00 TS -13.07 154.08 1000 30 1000 30 1000 28 29 1000
SP 12:00:00 TS -13.11 154.07 30 999 30 1000 27 30 1000
SP 14:00:00 TS -13.16 154.05 998 24 998 31 998 24 31 998
SP 15:00:00 TS -13.20 154.04 22 997 32 998 22 32 998
SP 17:00:00 TS -13.28 154.03 996 17 996 34 996 19 34 996
SP 18:00:00 TS -13.31 154.03 15 996 35 996 18 35 996
SP 20:00:00 TS -13.38 154.05 996 16 996 36 995 15 36 995
SP 21:00:00 TS -13.41 154.07 17 995 37 995 16 37 995
SP 23:00:00 TS -13.48 154.11 995 19 995 39 995 18 39 995
SP 1972-04-12 00:00:00 TS -13.50 154.13 20 994 30 997 40 995 19 40 995
SP 02:00:00 TS -13.56 154.17 994 23 994 31 995 41 993 22 40 994
SP 03:00:00 TS -13.58 154.21 25 993 32 995 42 993 23 40 994
SP 05:00:00 TS -13.64 154.27 992 28 992 34 994 44 992 26 40 993
SP 06:00:00 TS -13.67 154.31 30 992 35 993 45 992 27 40 993
SP 08:00:00 TS -13.73 154.37 992 30 992 36 992 45 992 30 41 992
SP 09:00:00 TS -13.76 154.39 30 992 37 991 45 992 29 42 992
SP 11:00:00 TS -13.80 154.44 992 30 992 39 990 45 992 28 44 992
SP 12:00:00 TS -13.83 154.47 30 991 40 990 45 992 28 45 992
SP 14:00:00 TS -13.87 154.52 990 28 990 42 988 48 989 27 48 989
SP 15:00:00 TS -13.89 154.54 27 988 43 987 50 988 27 50 988
SP 17:00:00 TS -13.92 154.60 984 25 984 46 985 53 985 26 53 985
SP 18:00:00 TS -13.94 154.64 25 982 47 985 55 984 25 55 984
SP 20:00:00 TS -14.00 154.73 980 28 980 50 983 58 981 25 58 981
SP 21:00:00 TS -14.03 154.79 30 978 51 982 60 980 28 60 980
SP 23:00:00 TS -14.10 154.94 976 33 976 53 980 63 977 35 63 977
SP 1972-04-13 00:00:00 TS -14.14 155.02 35 974 55 980 65 976 38 65 976
SP 02:00:00 TS -14.24 155.23 970 45 970 56 978 70 972 45 70 972
SP 03:00:00 TS -14.28 155.33 50 968 57 977 72 970 48 72 971
SP 05:00:00 TS -14.38 155.55 965 60 965 59 975 77 966 55 77 967
SP 06:00:00 TS -14.44 155.67 65 963 60 975 80 965 59 80 966
SP 08:00:00 TS -14.53 155.86 960 61 960 61 973 81 963 66 81 963
SP 09:00:00 TS -14.56 155.93 960 60 960 62 972 82 962 62 82 963
SP 11:00:00 TS -14.67 156.08 960 56 960 64 970 84 960 55 84 960
SP 12:00:00 TS -14.72 156.16 55 958 65 970 85 960 51 85 960
SP 14:00:00 TS -14.85 156.31 955 44 955 66 968 86 958 44 88 957
SP 15:00:00 TS -14.93 156.40 40 955 67 967 87 957 40 90 956
SP 17:00:00 TS -15.11 156.57 955 29 955 69 965 89 955 33 93 953
SP 18:00:00 TS -15.21 156.67 25 953 70 965 90 955 30 95 952
SP 20:00:00 TS -15.39 156.88 950 23 950 71 963 93 951 23 98 949
SP 21:00:00 TS -15.49 157.00 22 948 72 962 95 950 22 100 948
SP 23:00:00 TS -15.69 157.23 945 20 945 74 960 98 946 22 103 946
SP 1972-04-14 00:00:00 TS -15.80 157.35 20 945 75 960 100 945 22 105 945
SP 02:00:00 TS -16.03 157.59 945 20 945 76 957 100 945 21 105 945
SP 03:00:00 TS -16.15 157.71 20 945 77 956 100 945 21 105 945
SP 05:00:00 TS -16.37 157.98 945 20 945 79 953 100 945 20 105 945
SP 06:00:00 TS -16.47 158.12 20 945 80 952 100 945 20 105 945
SP 08:00:00 TS -16.64 158.40 945 21 945 81 949 100 945 20 105 945
SP 09:00:00 TS -16.71 158.54 22 945 82 948 100 945 20 105 945
SP 11:00:00 TS -16.82 158.84 945 24 945 84 946 100 945 22 105 945
SP 12:00:00 TS -16.87 158.99 25 945 85 945 100 945 23 105 945
SP 14:00:00 TS -16.96 159.30 945 26 945 83 947 100 945 25 105 945
SP 15:00:00 TS -17.00 159.43 27 945 82 948 100 945 25 105 945
SP 17:00:00 TS -17.07 159.72 945 29 945 80 951 100 945 27 105 945
SP 18:00:00 TS -17.11 159.91 30 945 80 952 100 945 28 105 945
SP 20:00:00 TS -17.19 160.32 30 945 78 955 100 945 30 105 945
SP 21:00:00 TS -17.23 160.50 30 945 77 956 100 945 30 105 945
SP 23:00:00 TS -17.30 160.84 30 945 75 958 100 945 30 105 945
SP 1972-04-15 00:00:00 TS -17.34 161.01 75 960 30 945 75 960 100 945 30 105 945
SP 02:00:00 TS -17.40 161.34 30 945 73 961 100 945 30 105 945
SP 03:00:00 TS -17.42 161.49 30 945 72 962 100 945 30 105 945
SP 05:00:00 TS -17.47 161.79 30 945 70 964 100 945 30 105 945
SP 06:00:00 TS -17.49 161.94 30 945 70 965 100 945 30 105 945
SP 08:00:00 TS -17.54 162.26 31 945 68 966 100 945 30 105 945
SP 09:00:00 TS -17.56 162.43 32 945 67 967 100 945 31 105 945
SP 10:00:00 TS -17.58 162.58 33 945 66 968 100 945 33 105 945
SP 11:00:00 TS -17.59 162.72 34 945 65 969 100 945 35 105 945
SP 12:00:00 TS -17.61 162.87 65 970 35 945 65 970 100 945 36 105 945
SP 14:00:00 TS -17.64 163.22 40 945 63 971 100 945 40 105 945
SP 15:00:00 TS -17.66 163.38 42 945 62 972 100 945 41 105 945
SP 17:00:00 TS -17.70 163.70 47 945 60 974 100 945 45 105 945
SP 18:00:00 TS -17.71 163.87 50 945 60 975 100 945 46 105 945
SP 20:00:00 TS -17.73 164.20 48 945 58 976 100 945 50 105 945
SP 21:00:00 TS -17.74 164.37 47 945 57 977 100 945 47 105 945
SP 23:00:00 TS -17.74 164.69 45 945 55 979 100 945 42 105 945
SP 1972-04-16 00:00:00 TS -17.74 164.85 55 980 45 946 55 980 100 945 40 105 945
SP 02:00:00 TS -17.72 165.18 38 950 55 980 98 946 35 99
SP 03:00:00 TS -17.70 165.35 35 950 55 980 97 947 32 97
SP 05:00:00 TS -17.65 165.68 28 950 55 980 95 949 27 92
SP 06:00:00 TS -17.63 165.84 25 951 55 980 95 950 25 90
SP 08:00:00 TS -17.60 166.13 21 955 55 980 93 951 20 86
SP 09:00:00 TS -17.58 166.27 20 955 55 980 92 952 20 85
SP 11:00:00 TS -17.55 166.54 16 955 55 980 90 954 20 81
SP 12:00:00 TS -17.53 166.68 55 980 15 955 55 980 90 955 20 80
SP 14:00:00 TS -17.47 166.96 15 955 55 980 90 955 20 76
SP 15:00:00 TS -17.45 167.10 15 955 55 980 90 955 20 75
SP 17:00:00 TS -17.40 167.38 15 955 55 980 90 955 20 71
SP 18:00:00 TS -17.39 167.53 15 955 55 980 90 955 20 70
SP 20:00:00 TS -17.39 167.82 13 955 55 980 90 955 20 63
SP 21:00:00 TS -17.39 167.96 12 955 55 980 90 955 60
SP 23:00:00 TS -17.41 168.26 10 955 55 980 90 955 53
SP 1972-04-17 00:00:00 TS -17.42 168.40 55 980 10 956 55 980 90 955 50
SP 02:00:00 TS -17.46 168.68 10 960 55 980 86 958 50
SP 03:00:00 TS -17.47 168.81 10 961 55 980 85 960 50
SP 05:00:00 TS -17.49 169.05 10 965 55 980 81 963 50
SP 06:00:00 TS -17.48 169.17 10 966 55 980 80 965 50
SP 08:00:00 TS -17.44 169.39 11 970 55 980 74 968 43
SP 09:00:00 TS -17.42 169.48 12 971 55 980 72 970 40
SP 11:00:00 TS -17.32 169.65 14 975 55 980 67 973 33
SP 12:00:00 TS -17.29 169.71 55 980 15 976 55 980 65 975 30
SP 14:00:00 TS -17.20 169.81 16 980 55 980 61 978
SP 15:00:00 TS -17.12 169.85 17 981 55 980 60 980
SP 17:00:00 TS -16.95 169.92 19 985 55 980 56 983
SP 18:00:00 TS -16.88 169.94 20 985 55 980 55 985
SP 20:00:00 NR -16.80 169.97 985 55 980
SP 21:00:00 NR -16.85 169.95 985 55 980
SP 23:00:00 NR -16.88 169.97 985 55 980
SP 1972-04-18 00:00:00 NR -17.00 170.00 55 980 55 980
SP 03:00:00 NR -16.87 170.13 55 980
SP 06:00:00 NR -16.71 170.25 55 980
SP 09:00:00 NR -16.55 170.38 55 980
SP 12:00:00 NR -16.40 170.50 55 980 55 980
SP 15:00:00 NR -16.30 170.67 51 982
SP 18:00:00 NR -16.21 170.83 47 985
SP 21:00:00 NR -16.11 170.95 43 987
SP 1972-04-19 00:00:00 NR -16.00 171.00 40 990 40 990
SP 03:00:00 NR -15.82 170.95 40 990
SP 06:00:00 NR -15.63 170.82 40 990
SP 09:00:00 NR -15.44 170.67 40 990
SP 12:00:00 NR -15.30 170.50 40 990 40 990
SP 15:00:00 NR -15.21 170.39 40 990
SP 18:00:00 NR -15.16 170.27 40 990
SP 21:00:00 NR -15.16 170.15 40 990
SP 1972-04-20 00:00:00 NR -15.20 170.00 40 990 40 990
SP 03:00:00 NR -15.29 169.83 37 991
SP 06:00:00 NR -15.41 169.63 35 993
SP 09:00:00 NR -15.55 169.42 32 995
SP 12:00:00 NR -15.70 169.20 30 997 30 997

Source Information

Agency Information
USA bsh291972.txt
TOKYO
CMA
HKO
NEWDELHI
REUNION
BOM IDCKMSTM0S.csv:Line=7325:GAIL
NADI
WELLINGTON TC_BT_1967_2006.csv:Line=416:GAIL
DS824 aus_area.dat:489:GAIL
TD9636 cons_worldwide_trop_cyclone_18710101-19891231-006:Line=8967
TD9635
NEUMANN tracks.sh:Storm=340:GAIL:BSH2972:BM416
MLC

All available IBTrACS Data

SEASON BASIN SUBBASIN ISO_TIME_________ NATURE LAT LON WMO WIND WMO PRES WMO AGENCY DIST2LAND LANDFALL IFLAG USA AGENCY USA ATCF_ID USA LAT USA LON USA WIND USA SSHS BOM LAT BOM LON BOM PRES BOM PRES_METHOD WELLINGTON LAT WELLINGTON LON WELLINGTON WIND WELLINGTON PRES DS824 LAT DS824 LON DS824 STAGE DS824 WIND DS824 PRES TD9636 LAT TD9636 LON TD9636 STAGE TD9636 WIND NEUMANN LAT NEUMANN LON NEUMANN CLASS NEUMANN WIND NEUMANN PRES STORM SPEED STORM DIR
Year degrees north degrees east kts mb km km degrees north degrees east kts 1 degrees north degrees east mb degrees north degrees east kts mb degrees north degrees east kts mb degrees north degrees east kts degrees north degrees east kts mb kts degrees
1972 SP EA 1972-04-11 00:00:00 TS -12.80 154.20 454 454 O_____________ jtwc_sh SH291972 -12.80 154.20 20 -1 1 239
1972 SP EA 02:00:00 TS -12.82 154.17 1004 bom 454 444 P_____O_______ SH291972 -12.83 154.16 23 -1 -12.80 154.20 1004 1 239
1972 SP EA 03:00:00 TS -12.84 154.14 444 444 P_____P_______ SH291972 -12.84 154.14 25 -1 -12.82 154.16 1003 2 225
1972 SP EA 05:00:00 TS -12.88 154.11 1001 bom 451 451 P_____O_______ SH291972 -12.88 154.11 28 -1 -12.90 154.10 1001 2 194
1972 SP EA 06:00:00 TS -12.91 154.12 451 451 O_____P__O__O_ jtwc_sh SH291972 -12.90 154.10 30 -1 -12.97 154.09 1000 -12.90 154.10 TC 30 1001 -12.80 154.40 TC 25 1002 2 0
1972 SP EA 08:00:00 TS -12.97 154.12 1000 bom 457 457 P_____O__PO_P_ SH291972 -12.96 154.10 30 -1 -13.00 154.10 1000 -12.97 154.06 TC 30 1000 -13.00 154.10 1 33 -12.91 154.32 TC 26 1001 1 0
1972 SP EA 09:00:00 TS -12.97 154.12 1000 bom 457 457 P_____O__PP_P_ SH291972 -12.99 154.10 30 -1 -12.90 154.10 1000 -13.00 154.04 TC 30 1000 -13.03 154.08 1 31 -12.96 154.28 TC 27 1001 2 195
1972 SP EA 11:00:00 TS -13.07 154.08 1000 bom 464 464 P_____O__PP_P_ SH291972 -13.06 154.10 30 -1 -13.10 154.00 1000 -13.07 154.01 TC 30 1000 -13.10 154.05 1 28 -13.06 154.22 TC 29 1000 3 192
1972 SP EA 12:00:00 TS -13.11 154.07 464 464 O_____P__OP_O_ jtwc_sh SH291972 -13.10 154.10 30 -1 -13.12 153.99 999 -13.10 154.00 TC 30 1000 -13.13 154.04 1 27 -13.10 154.20 TC 30 1000 2 205
1972 SP EA 14:00:00 TS -13.16 154.05 998 bom 470 462 P_____O__PP_P_ SH291972 -13.17 154.06 24 -1 -13.10 154.00 998 -13.17 153.99 TC 31 998 -13.19 154.01 1 24 -13.17 154.18 TC 31 998 2 201
1972 SP EA 15:00:00 TS -13.20 154.04 462 462 P_____P__PP_P_ SH291972 -13.20 154.04 22 -1 -13.16 154.00 997 -13.20 153.99 TC 32 998 -13.23 154.00 1 22 -13.21 154.18 TC 32 998 2 192
1972 SP EA 17:00:00 TS -13.28 154.03 996 bom 469 469 P_____O__PP_P_ SH291972 -13.27 154.01 17 -1 -13.30 154.00 996 -13.27 153.99 TC 34 996 -13.30 153.99 1 19 -13.27 154.19 TC 34 996 2 0
1972 SP EA 18:00:00 TS -13.31 154.03 469 469 O_____P__OP_O_ jtwc_sh SH291972 -13.30 154.00 15 -1 -13.34 153.99 996 -13.30 154.00 TC 35 996 -13.33 153.99 1 18 -13.30 154.20 TC 35 996 2 165
1972 SP EA 20:00:00 TS -13.38 154.05 996 bom 476 485 P_____O__PO_P_ SH291972 -13.37 154.02 16 -1 -13.40 154.00 996 -13.37 154.03 TC 36 995 -13.40 154.00 1 15 -13.37 154.23 TC 36 995 2 154
1972 SP EA 21:00:00 TS -13.41 154.07 485 485 P_____P__PP_P_ SH291972 -13.40 154.03 17 -1 -13.43 154.03 995 -13.40 154.04 TC 37 995 -13.44 154.01 1 16 -13.41 154.24 TC 37 995 2 149
1972 SP EA 23:00:00 TS -13.48 154.11 995 bom 492 492 P_____O__PP_P_ SH291972 -13.47 154.08 19 -1 -13.50 154.10 995 -13.47 154.08 TC 39 995 -13.51 154.05 1 18 -13.47 154.28 TC 39 995 2 145
1972 SP EA 1972-04-12 00:00:00 TS -13.50 154.13 492 492 O_____P_OOP_O_ jtwc_sh SH291972 -13.50 154.10 20 -1 -13.53 154.10 994 -13.30 154.20 30 997 -13.50 154.10 TC 40 995 -13.54 154.07 1 19 -13.50 154.30 TC 40 995 2 146
1972 SP EA 02:00:00 TS -13.56 154.17 994 bom 507 507 P_____O_PPP_P_ SH291972 -13.57 154.13 23 -1 -13.60 154.10 994 -13.37 154.36 31 995 -13.57 154.13 TC 41 993 -13.62 154.12 1 22 -13.54 154.33 TC 40 994 2 139
1972 SP EA 03:00:00 TS -13.58 154.21 507 507 P_____P_PPP_P_ SH291972 -13.60 154.14 25 -1 -13.63 154.13 993 -13.40 154.44 32 995 -13.61 154.15 TC 42 993 -13.65 154.15 1 23 -13.55 154.35 TC 40 994 3 129
1972 SP EA 05:00:00 TS -13.64 154.27 992 bom 515 515 P_____O_PPP_P_ SH291972 -13.67 154.18 28 -1 -13.70 154.20 992 -13.47 154.59 34 994 -13.67 154.18 TC 44 992 -13.71 154.21 1 26 -13.58 154.38 TC 40 993 3 131
1972 SP EA 06:00:00 TS -13.67 154.31 523 523 O_____P_POP_O_ jtwc_sh SH291972 -13.70 154.20 30 -1 -13.74 154.24 992 -13.50 154.66 35 993 -13.70 154.20 TC 45 992 -13.74 154.24 1 27 -13.60 154.40 TC 40 993 3 138
1972 SP EA 08:00:00 TS -13.73 154.37 992 bom 531 531 P_____O_PPO_P_ SH291972 -13.77 154.26 30 -1 -13.80 154.30 992 -13.57 154.79 36 992 -13.74 154.23 TC 45 992 -13.80 154.30 1 30 -13.66 154.42 TC 41 992 2 134
1972 SP EA 09:00:00 TS -13.76 154.39 538 538 P_____P_PPP_P_ SH291972 -13.81 154.30 30 -1 -13.80 154.30 992 -13.60 154.85 37 991 -13.76 154.24 TC 45 992 -13.82 154.31 1 29 -13.70 154.44 TC 42 992 2 138
1972 SP EA 11:00:00 TS -13.80 154.44 992 bom 538 538 P_____O_PPP_P_ SH291972 -13.87 154.37 30 -1 -13.80 154.30 992 -13.67 154.96 39 990 -13.79 154.28 TC 45 992 -13.85 154.33 1 28 -13.77 154.47 TC 44 992 2 137
1972 SP EA 12:00:00 TS -13.83 154.47 546 546 O_____P_OOP_O_ jtwc_sh SH291972 -13.90 154.40 30 -1 -13.83 154.33 991 -13.70 155.00 40 990 -13.80 154.30 TC 45 992 -13.87 154.35 1 28 -13.80 154.50 TC 45 992 2 131
1972 SP EA 14:00:00 TS -13.87 154.52 990 bom 554 554 P_____O_PPP_P_ SH291972 -13.94 154.42 28 -1 -13.90 154.40 990 -13.76 155.07 42 988 -13.82 154.34 TC 48 989 -13.89 154.38 1 27 -13.84 154.58 TC 48 989 2 131
1972 SP EA 15:00:00 TS -13.89 154.54 554 554 P_____P_PPP_P_ SH291972 -13.96 154.44 27 -1 -13.90 154.43 988 -13.80 155.09 43 987 -13.83 154.37 TC 50 988 -13.91 154.40 1 27 -13.85 154.64 TC 50 988 2 122
1972 SP EA 17:00:00 TS -13.92 154.60 984 bom 562 562 P_____O_PPP_P_ SH291972 -13.99 154.47 25 -1 -13.90 154.50 984 -13.87 155.13 46 985 -13.87 154.45 TC 53 985 -13.94 154.45 1 26 -13.88 154.74 TC 53 985 2 119
1972 SP EA 18:00:00 TS -13.94 154.64 562 562 O_____P_POP_O_ jtwc_sh SH291972 -14.00 154.50 25 -1 -13.93 154.52 982 -13.90 155.15 47 985 -13.90 154.50 TC 55 984 -13.95 154.49 1 25 -13.90 154.80 TC 55 984 3 124
1972 SP EA 20:00:00 TS -14.00 154.73 980 bom 577 577 P_____O_PPO_P_ SH291972 -14.02 154.59 28 -1 -14.00 154.60 980 -13.99 155.19 50 983 -13.99 154.64 TC 58 981 -14.00 154.60 1 25 -13.96 154.88 TC 58 981 3 120
1972 SP EA 21:00:00 TS -14.03 154.79 586 586 P_____P_PPP_P_ SH291972 -14.03 154.65 30 -1 -14.03 154.68 978 -14.03 155.21 51 982 -14.04 154.72 TC 60 980 -14.03 154.68 1 28 -13.99 154.93 TC 60 980 5 116
1972 SP EA 23:00:00 TS -14.10 154.94 976 bom 601 609 P_____O_PPP_P_ SH291972 -14.07 154.80 33 -1 -14.10 154.90 976 -14.14 155.26 53 980 -14.15 154.90 TC 63 977 -14.09 154.87 1 35 -14.06 155.03 TC 63 977 5 116
1972 SP EA 1972-04-13 00:00:00 TS -14.14 155.02 609 609 O_____P_OOP_O_ jtwc_sh SH291972 -14.10 154.90 35 0 -14.16 155.00 974 -14.20 155.30 55 980 -14.20 155.00 TC 65 976 -14.12 154.97 1 38 -14.10 155.10 TC 65 976 6 116
1972 SP EA 02:00:00 TS -14.24 155.23 970 bom 633 633 P_____O_PPP_P_ SH291972 -14.18 155.15 45 0 -14.30 155.20 970 -14.35 155.40 56 978 -14.28 155.20 TC 70 972 -14.20 155.20 1 45 -14.17 155.28 TC 70 972 7 115
1972 SP EA 03:00:00 TS -14.28 155.33 649 649 P_____P_PPP_P_ SH291972 -14.23 155.29 50 0 -14.34 155.29 968 -14.43 155.45 57 977 -14.32 155.30 TC 72 970 -14.24 155.32 1 48 -14.20 155.38 TC 72 971 7 114
1972 SP EA 05:00:00 TS -14.38 155.55 965 bom 681 681 P_____O_PPP_P_ SH291972 -14.34 155.57 60 0 -14.40 155.50 965 -14.60 155.57 59 975 -14.38 155.50 TC 77 966 -14.33 155.56 1 55 -14.27 155.60 TC 77 967 7 115
1972 SP EA 06:00:00 TS -14.44 155.67 681 675 O_____P_POP_O_ jtwc_sh SH291972 -14.40 155.70 65 1 -14.47 155.66 963 -14.69 155.64 60 975 -14.40 155.60 TC 80 965 -14.39 155.67 1 59 -14.30 155.70 TC 80 966 7 116
1972 SP EA 08:00:00 TS -14.53 155.86 960 bom 675 675 P_____O_PPO_P_ SH291972 -14.53 155.89 61 0 -14.50 155.90 960 -14.87 155.78 61 973 -14.41 155.77 TC 81 963 -14.50 155.90 4 66 -14.34 155.87 TC 81 963 6 116
1972 SP EA 09:00:00 TS -14.56 155.93 960 bom 684 671 P_____O_PPP_P_ SH291972 -14.59 155.97 60 0 -14.40 155.90 960 -14.96 155.86 62 972 -14.42 155.86 TC 82 962 -14.56 155.99 4 62 -14.37 155.95 TC 82 963 5 123
1972 SP EA 11:00:00 TS -14.67 156.08 960 bom 680 680 P_____O_PPP_P_ SH291972 -14.73 156.12 56 0 -14.50 156.00 960 -15.12 156.02 64 970 -14.46 156.02 TC 84 960 -14.68 156.15 4 55 -14.44 156.11 TC 84 960 6 127
1972 SP EA 12:00:00 TS -14.72 156.16 673 673 O_____P_OOP_O_ jtwc_sh SH291972 -14.80 156.20 55 0 -14.52 156.06 958 -15.20 156.10 65 970 -14.50 156.10 TC 85 960 -14.75 156.23 4 51 -14.50 156.20 TC 85 960 6 129
1972 SP EA 14:00:00 TS -14.85 156.31 955 bom 686 680 P_____O_PPP_P_ SH291972 -14.92 156.36 44 0 -14.60 156.20 955 -15.31 156.25 66 968 -14.65 156.25 TC 86 958 -14.89 156.39 4 44 -14.67 156.39 TC 88 957 6 132
1972 SP EA 15:00:00 TS -14.93 156.40 680 680 P_____P_PPP_P_ SH291972 -14.98 156.44 40 0 -14.71 156.29 955 -15.36 156.32 67 967 -14.75 156.33 TC 87 957 -14.97 156.46 4 40 -14.77 156.48 TC 90 956 7 136
1972 SP EA 17:00:00 TS -15.11 156.57 955 bom 687 687 P_____O_PPP_P_ SH291972 -15.12 156.61 29 -1 -15.00 156.50 955 -15.45 156.48 69 965 -14.98 156.50 TC 89 955 -15.13 156.63 4 33 -14.99 156.69 TC 93 953 8 136
1972 SP EA 18:00:00 TS -15.21 156.67 692 692 O_____P_POP_O_ jtwc_sh SH291972 -15.20 156.70 25 -1 -15.14 156.63 953 -15.49 156.57 70 965 -15.10 156.60 TC 90 955 -15.22 156.71 4 30 -15.10 156.80 TC 95 952 8 133
1972 SP EA 20:00:00 TS -15.39 156.88 950 bom 701 701 P_____O_PPO_P_ SH291972 -15.38 156.88 23 -1 -15.40 156.90 950 -15.58 156.75 71 963 -15.33 156.85 TC 93 951 -15.40 156.90 1 23 -15.29 157.03 TC 98 949 8 132
1972 SP EA 21:00:00 TS -15.49 157.00 706 702 P_____P_PPP_P_ SH291972 -15.48 156.98 22 -1 -15.50 157.04 948 -15.63 156.86 72 962 -15.44 156.98 TC 95 950 -15.50 157.00 1 22 -15.39 157.14 TC 100 948 9 132
1972 SP EA 23:00:00 TS -15.69 157.23 945 bom 718 714 P_____O_PPP_P_ SH291972 -15.69 157.19 20 -1 -15.70 157.30 945 4 -15.74 157.08 74 960 -15.68 157.26 TC 98 946 -15.73 157.22 1 22 -15.59 157.38 TC 103 946 9 132
1972 SP EA 1972-04-14 00:00:00 TS -15.80 157.35 724 720 O_____P_OOP_O_ jtwc_sh SH291972 -15.80 157.30 20 -1 -15.83 157.40 945 -15.80 157.20 75 960 -15.80 157.40 TC 100 945 -15.84 157.34 1 22 -15.70 157.50 TC 105 945 10 135
1972 SP EA 02:00:00 TS -16.03 157.59 945 bom 734 740 P_____O_PPP_P_ SH291972 -16.04 157.55 20 -1 -16.10 157.60 945 -15.97 157.46 76 957 -16.05 157.64 TC 100 945 -16.08 157.58 1 21 -15.94 157.73 TC 105 945 10 135
1972 SP EA 03:00:00 TS -16.15 157.71 740 740 P_____P_PPP_P_ SH291972 -16.16 157.68 20 -1 -16.21 157.73 945 -16.06 157.60 77 956 -16.18 157.75 TC 100 945 -16.20 157.71 1 21 -16.06 157.84 TC 105 945 10 132
1972 SP EA 05:00:00 TS -16.37 157.98 945 bom 749 743 P_____O_PPP_P_ SH291972 -16.40 157.96 20 -1 -16.40 158.00 945 -16.25 157.90 79 953 -16.41 157.98 TC 100 945 -16.42 157.98 1 20 -16.30 158.08 TC 105 945 10 129
1972 SP EA 06:00:00 TS -16.47 158.12 753 721 O_____P_POP_O_ jtwc_sh SH291972 -16.50 158.10 20 -1 -16.51 158.13 945 -16.35 158.06 80 952 -16.50 158.10 TC 100 945 -16.52 158.11 1 20 -16.40 158.20 TC 105 945 10 124
1972 SP EA 08:00:00 TS -16.64 158.40 945 bom 721 706 P_____O_PPO_P_ SH291972 -16.67 158.39 21 -1 -16.70 158.40 945 -16.55 158.39 81 949 -16.63 158.36 TC 100 945 -16.70 158.40 1 20 -16.57 158.45 TC 105 945 9 120
1972 SP EA 09:00:00 TS -16.71 158.54 706 673 P_____P_PPP_P_ SH291972 -16.74 158.54 22 -1 -16.75 158.53 945 -16.64 158.56 82 948 -16.68 158.50 TC 100 945 -16.77 158.55 1 20 -16.64 158.58 TC 105 945 9 113
1972 SP EA 11:00:00 TS -16.82 158.84 945 bom 673 649 P_____O_PPP_P_ SH291972 -16.85 158.84 24 -1 -16.80 158.80 945 -16.82 158.92 84 946 -16.76 158.77 TC 100 945 -16.89 158.85 1 22 -16.75 158.85 TC 105 945 9 110
1972 SP EA 12:00:00 TS -16.87 158.99 649 617 O_____P_OOP_O_ jtwc_sh SH291972 -16.90 159.00 25 -1 -16.83 158.96 945 -16.90 159.10 85 945 -16.80 158.90 TC 100 945 -16.94 159.00 1 23 -16.80 159.00 TC 105 945 9 108
1972 SP EA 14:00:00 TS -16.96 159.30 945 bom 617 609 P_____O_PPP_P_ SH291972 -16.98 159.33 26 -1 -16.90 159.20 945 -17.03 159.48 83 947 -16.91 159.10 TC 100 945 -17.02 159.32 1 25 -16.88 159.32 TC 105 945 9 107
1972 SP EA 15:00:00 TS -17.00 159.43 609 577 P_____P_PPP_P_ SH291972 -17.01 159.50 27 -1 -16.93 159.17 945 -17.09 159.67 82 948 -16.96 159.21 TC 100 945 -17.06 159.48 1 25 -16.91 159.49 TC 105 945 8 106
1972 SP EA 17:00:00 TS -17.07 159.72 945 bom 577 560 P_____O_PPP_P_ SH291972 -17.07 159.84 29 -1 -17.00 159.20 945 -17.20 160.07 80 951 -17.06 159.45 TC 100 945 -17.12 159.81 1 27 -16.97 159.83 TC 105 945 9 104
1972 SP EA 18:00:00 TS -17.11 159.91 560 521 O_____P_POP_O_ jtwc_sh SH291972 -17.10 160.00 30 -1 -17.06 159.51 945 -17.25 160.27 80 952 -17.10 159.60 TC 100 945 -17.15 159.97 1 28 -17.00 160.00 TC 105 945 12 102
1972 SP MM 20:00:00 TS -17.19 160.32 521 506 P_____O_PPO_P_ SH291972 -17.17 160.30 30 -1 -17.20 160.30 945 -17.34 160.66 78 955 -17.18 160.04 TC 100 945 -17.20 160.30 1 30 -17.10 160.34 TC 105 945 12 102
1972 SP MM 21:00:00 TS -17.23 160.50 506 475 P_____P_PPP_P_ SH291972 -17.20 160.45 30 -1 -17.24 160.51 945 -17.38 160.85 77 956 -17.22 160.28 TC 100 945 -17.23 160.46 1 30 -17.16 160.51 TC 105 945 10 102
1972 SP MM 23:00:00 TS -17.30 160.84 475 460 P_____O_PPP_P_ SH291972 -17.27 160.75 30 -1 -17.30 160.80 945 -17.46 161.22 75 958 -17.28 160.78 TC 100 945 -17.30 160.77 1 30 -17.26 160.84 TC 105 945 10 102
1972 SP MM 1972-04-15 00:00:00 TS -17.34 161.01 75 960 wellington 460 430 O_____P_OOP_O_ jtwc_sh SH291972 -17.30 160.90 30 -1 -17.34 160.97 945 -17.50 161.40 75 960 -17.30 161.00 TC 100 945 -17.33 160.93 1 30 -17.30 161.00 TC 105 945 10 102
1972 SP MM 02:00:00 TS -17.40 161.34 430 415 P_____O_PPP_P_ SH291972 -17.37 161.23 30 -1 -17.40 161.30 945 -17.59 161.71 73 961 -17.34 161.34 TC 100 945 -17.38 161.24 1 30 -17.35 161.31 TC 105 945 9 101
1972 SP MM 03:00:00 TS -17.42 161.49 415 387 P_____P_PPP_P_ SH291972 -17.41 161.39 30 -1 -17.40 161.44 945 -17.63 161.86 72 962 -17.36 161.49 TC 100 945 -17.40 161.40 1 30 -17.36 161.46 TC 105 945 9 99
1972 SP MM 05:00:00 TS -17.47 161.79 387 380 P_____O_PPP_P_ SH291972 -17.47 161.73 30 -1 -17.40 161.70 945 -17.71 162.14 70 964 -17.39 161.76 TC 100 945 -17.45 161.72 1 30 -17.39 161.75 TC 105 945 9 99
1972 SP MM 06:00:00 TS -17.49 161.94 380 356 O_____P_POP_O_ jtwc_sh SH291972 -17.50 161.90 30 -1 -17.43 161.85 945 -17.75 162.28 70 965 -17.40 161.90 TC 100 945 -17.47 161.88 1 30 -17.40 161.90 TC 105 945 9 99
1972 SP MM 08:00:00 TS -17.54 162.26 356 341 P_____O_PPO_P_ SH291972 -17.55 162.23 31 -1 -17.50 162.20 945 -17.83 162.55 68 966 -17.43 162.19 TC 100 945 -17.50 162.20 1 30 -17.43 162.19 TC 105 945 9 98
1972 SP MM 09:00:00 TS -17.56 162.43 341 330 P_____P_PPP_P_ SH291972 -17.56 162.40 32 -1 -17.50 162.44 945 -17.87 162.69 67 967 -17.45 162.34 TC 100 945 -17.52 162.37 1 31 -17.45 162.34 TC 105 945 9 97
1972 SP MM 10:00:00 TS -17.58 162.58 330 326 P_____O_PPP_P_ SH291972 -17.58 162.57 33 -1 -17.50 162.60 945 -17.91 162.82 66 968 -17.47 162.49 TC 100 945 -17.53 162.54 1 33 -17.47 162.49 TC 105 945 8 97
1972 SP MM 11:00:00 TS -17.59 162.72 326 321 P_____O_PPP_P_ SH291972 -17.59 162.73 34 0 -17.50 162.60 945 -17.96 162.96 65 969 -17.48 162.64 TC 100 945 -17.55 162.71 1 35 -17.48 162.64 TC 105 945 8 96
1972 SP MM 12:00:00 TS -17.61 162.87 65 970 wellington 317 305 O_____P_OOP_O_ jtwc_sh SH291972 -17.60 162.90 35 0 -17.50 162.74 945 -18.00 163.10 65 970 -17.50 162.80 TC 100 945 -17.56 162.88 1 36 -17.50 162.80 TC 105 945 10 96
1972 SP MM 14:00:00 TS -17.64 163.22 305 289 P_____O_PPP_P_ SH291972 -17.61 163.24 40 0 -17.50 163.20 945 -18.12 163.40 63 971 -17.54 163.13 TC 100 945 -17.58 163.22 1 40 -17.54 163.12 TC 105 945 10 96
1972 SP MM 15:00:00 TS -17.66 163.38 289 282 P_____P_PPP_P_ SH291972 -17.61 163.41 42 0 -17.53 163.34 945 -18.18 163.55 62 972 -17.56 163.29 TC 100 945 -17.59 163.38 1 41 -17.56 163.28 TC 105 945 9 97
1972 SP MM 17:00:00 TS -17.70 163.70 282 281 P_____O_PPP_P_ SH291972 -17.60 163.74 47 0 -17.60 163.60 945 -18.31 163.85 60 974 -17.59 163.63 TC 100 945 -17.60 163.72 1 45 -17.59 163.62 TC 105 945 9 96
1972 SP MM 18:00:00 TS -17.71 163.87 280 279 O_____P_POP_O_ jtwc_sh SH291972 -17.60 163.90 50 0 -17.61 163.79 945 -18.37 164.01 60 975 -17.60 163.80 TC 100 945 -17.60 163.88 1 46 -17.60 163.80 TC 105 945 10 94
1972 SP MM 20:00:00 TS -17.73 164.20 279 279 P_____O_PPO_P_ SH291972 -17.61 164.21 48 0 -17.60 164.20 945 -18.47 164.33 58 976 -17.61 164.14 TC 100 945 -17.60 164.20 2 50 -17.62 164.12 TC 105 945 9 93
1972 SP MM 21:00:00 TS -17.74 164.37 281 281 P_____P_PPP_P_ SH291972 -17.61 164.36 47 0 -17.60 164.38 945 -18.52 164.49 57 977 -17.61 164.32 TC 100 945 -17.60 164.35 2 47 -17.62 164.29 TC 105 945 9 92
1972 SP MM 23:00:00 TS -17.74 164.69 286 286 P_____O_PPP_P_ SH291972 -17.61 164.66 45 0 -17.60 164.70 945 -18.58 164.83 55 979 -17.61 164.64 TC 100 945 -17.59 164.65 2 42 -17.61 164.67 TC 105 945 9 90
1972 SP MM 1972-04-16 00:00:00 TS -17.74 164.85 55 980 wellington 289 269 O_____P_OOP_O_ jtwc_sh SH291972 -17.60 164.80 45 0 -17.61 164.84 946 -18.60 165.00 55 980 -17.60 164.80 TC 100 945 -17.59 164.80 2 40 -17.60 164.90 TC 105 945 9 87
1972 SP MM 02:00:00 TS -17.72 165.18 269 260 P_____O_PPP_P_ SH291972 -17.57 165.07 38 0 -17.60 165.10 950 -18.60 165.36 55 980 -17.57 165.08 TC 98 946 -17.57 165.08 2 35 -17.54 165.50 TC 99 10 85
1972 SP MM 03:00:00 TS -17.70 165.35 251 225 P_____P_PPP_P_ SH291972 -17.56 165.21 35 0 -17.57 165.23 950 -18.58 165.55 55 980 -17.55 165.22 TC 97 947 -17.56 165.22 2 32 -17.51 165.82 TC 97 10 82
1972 SP MM 05:00:00 TS -17.65 165.68 225 209 P_____O_PPP_P_ SH291972 -17.52 165.47 28 -1 -17.50 165.50 950 -18.53 165.92 55 980 -17.51 165.47 TC 95 949 -17.54 165.49 2 27 -17.43 166.44 TC 92 9 82
1972 SP MM 06:00:00 TS -17.63 165.84 209 185 O_____P_POP_O_ jtwc_sh SH291972 -17.50 165.60 25 -1 -17.49 165.63 951 -18.50 166.11 55 980 -17.50 165.60 TC 95 950 -17.53 165.63 2 25 -17.40 166.70 TC 90 9 83
1972 SP MM 08:00:00 TS -17.60 166.13 185 177 P_____O_PPO_P_ SH291972 -17.47 165.87 21 -1 -17.50 165.90 955 -18.41 166.48 55 980 -17.50 165.87 TC 93 951 -17.50 165.90 1 20 -17.35 167.04 TC 86 8 83
1972 SP MM 09:00:00 TS -17.58 166.27 169 146 P_____P_PPP_P_ SH291972 -17.45 166.00 20 -1 -17.51 166.03 955 -18.36 166.67 55 980 -17.51 166.00 TC 92 952 -17.48 166.03 1 20 -17.33 167.17 TC 85 8 83
1972 SP MM 11:00:00 TS -17.55 166.54 146 131 P_____O_PPP_P_ SH291972 -17.42 166.27 16 -1 -17.50 166.30 955 -18.26 167.03 55 980 -17.51 166.27 TC 90 954 -17.44 166.30 1 20 -17.30 167.39 TC 81 8 82
1972 SP MM 12:00:00 TS -17.53 166.68 55 980 wellington 131 113 O_____P_OOP_O_ jtwc_sh SH291972 -17.40 166.40 15 -1 -17.47 166.43 955 -18.20 167.20 55 980 -17.50 166.40 TC 90 955 -17.41 166.43 1 20 -17.30 167.50 TC 80 8 79
1972 SP MM 14:00:00 TS -17.47 166.96 113 109 P_____O_PPP_P_ SH291972 -17.36 166.66 15 -1 -17.40 166.70 955 -18.09 167.56 55 980 -17.44 166.66 TC 90 955 -17.37 166.69 1 20 -17.31 167.79 TC 76 8 79
1972 SP MM 15:00:00 TS -17.45 167.10 99 90 P_____P_PPP_P_ SH291972 -17.33 166.79 15 -1 -17.36 166.83 955 -18.03 167.73 55 980 -17.40 166.79 TC 90 955 -17.35 166.82 1 20 -17.33 167.94 TC 75 8 80
1972 SP MM 17:00:00 TS -17.40 167.38 90 89 P_____O_PPP_P_ SH291972 -17.31 167.06 15 -1 -17.30 167.10 955 -17.91 168.07 55 980 -17.33 167.06 TC 90 955 -17.32 167.09 1 20 -17.37 168.25 TC 71 8 82
1972 SP MM 18:00:00 TS -17.39 167.53 89 89 O_____P_POP_O_ jtwc_sh SH291972 -17.30 167.20 15 -1 -17.29 167.23 955 -17.84 168.23 55 980 -17.30 167.20 TC 90 955 -17.31 167.22 1 20 -17.40 168.40 TC 70 8 87
1972 SP MM 20:00:00 TS -17.39 167.82 89 89 P_____O_PPO_P_ SH291972 -17.31 167.49 13 -1 -17.30 167.50 955 -17.72 168.52 55 980 -17.27 167.49 TC 90 955 -17.30 167.50 1 20 -17.49 168.72 TC 63 8 90
1972 SP MM 21:00:00 TS -17.39 167.96 92 92 P_____P_PPP_P_ SH291972 -17.33 167.64 12 -1 -17.29 167.63 955 -17.66 168.66 55 980 -17.27 167.64 TC 90 955 -17.33 167.66 1 -17.54 168.88 TC 60 8 93
1972 SP MM 23:00:00 TS -17.41 168.26 104 104 P_____O_PPP_P_ SH291972 -17.37 167.95 10 -1 -17.30 167.90 955 -17.55 168.90 55 980 -17.28 167.95 TC 90 955 -17.40 167.98 1 -17.60 169.17 TC 53 8 94
1972 SP MM 1972-04-17 00:00:00 TS -17.42 168.40 55 980 wellington 109 109 O_____P_OOP_O_ jtwc_sh SH291972 -17.40 168.10 10 -1 -17.33 168.06 956 -17.50 169.00 55 980 -17.30 168.10 TC 90 955 -17.44 168.14 1 -17.60 169.30 TC 50 8 97
1972 SP MM 02:00:00 TS -17.46 168.68 138 138 P_____O_PPP_P_ SH291972 -17.48 168.41 10 -1 -17.40 168.40 960 -17.42 169.16 55 980 -17.37 168.41 TC 86 958 -17.52 168.46 1 -17.53 169.51 TC 50 8 97
1972 SP MM 03:00:00 TS -17.47 168.81 146 146 P_____P_PPP_P_ SH291972 -17.52 168.56 10 -1 -17.43 168.54 961 -17.39 169.22 55 980 -17.41 168.56 TC 85 960 -17.55 168.61 1 -17.47 169.60 TC 50 7 94
1972 SP MM 05:00:00 TS -17.49 169.05 162 171 P_____O_PPP_P_ SH291972 -17.59 168.86 10 -1 -17.50 168.80 965 -17.34 169.31 55 980 -17.48 168.86 TC 81 963 -17.61 168.91 1 -17.30 169.74 TC 50 7 92
1972 SP MM 06:00:00 TS -17.48 169.17 179 179 O_____P_POP_O_ jtwc_sh SH291972 -17.60 169.00 10 -1 -17.56 168.96 966 -17.31 169.35 55 980 -17.50 169.00 TC 80 965 -17.62 169.05 1 -17.20 169.80 TC 50 7 83
1972 SP MM 08:00:00 TS -17.44 169.39 192 192 P_____O_PPO_P_ SH291972 -17.59 169.27 11 -1 -17.60 169.30 970 -17.27 169.40 55 980 -17.48 169.31 TC 74 968 -17.60 169.30 1 -16.98 169.91 TC 43 6 77
1972 SP MM 09:00:00 TS -17.42 169.48 201 201 P_____P_PPP_P_ SH291972 -17.56 169.40 12 -1 -17.52 169.45 971 -17.25 169.43 55 980 -17.45 169.45 TC 72 970 -17.57 169.41 1 -16.87 169.96 TC 40 5 63
1972 SP MM 11:00:00 TS -17.32 169.65 206 216 P_____O_PPP_P_ SH291972 -17.47 169.61 14 -1 -17.30 169.70 975 -17.22 169.47 55 980 -17.36 169.70 TC 67 973 -17.46 169.59 1 -16.62 170.05 TC 33 5 60
1972 SP MM 12:00:00 TS -17.29 169.71 55 980 wellington 216 216 O_____P_OOP_O_ jtwc_sh SH291972 -17.40 169.70 15 -1 -17.26 169.79 976 -17.20 169.50 55 980 -17.30 169.80 TC 65 975 -17.38 169.67 1 -16.50 170.10 TC 30 4 53
1972 SP MM 14:00:00 TS -17.20 169.81 223 220 P_____O_PPP___ SH291972 -17.23 169.83 16 -1 -17.20 169.90 980 -17.17 169.58 55 980 -17.15 169.92 TC 61 978 -17.20 169.81 1 TC 4 39
1972 SP MM 15:00:00 TS -17.12 169.85 230 228 P_____P_PPP___ SH291972 -17.13 169.89 17 -1 -17.12 169.94 981 -17.16 169.62 55 980 -17.07 169.96 TC 60 980 -17.10 169.86 1 TC 5 21
1972 SP MM 17:00:00 TS -16.95 169.92 228 226 P_____O_PPP___ SH291972 -16.91 169.97 19 -1 -16.90 170.00 985 -17.14 169.71 55 980 -16.89 169.99 TC 56 983 -16.87 169.97 1 TC 5 17
1972 SP MM 18:00:00 TS -16.88 169.94 226 226 O_____P_POP___ jtwc_sh SH291972 -16.80 170.00 20 -1 -16.76 170.04 985 -17.12 169.75 55 980 -16.80 170.00 TC 55 985 -16.75 170.01 1 3 10
1972 SP MM 20:00:00 NR -16.80 169.97 235 224 ______O_P_O___ SH291972 -1 -16.50 170.10 985 -17.09 169.83 55 980 TC -16.50 170.10 1 1 0
1972 SP MM 21:00:00 NR -16.85 169.95 226 226 ______P_P_____ SH291972 -1 -16.41 170.09 985 -17.07 169.87 55 980 TC 1 2 168
1972 SP MM 23:00:00 NR -16.88 169.97 236 236 ______O_P_____ SH291972 -1 -16.30 170.00 985 -17.03 169.96 55 980 TC 1 3 158
1972 SP MM 1972-04-18 00:00:00 NR -17.00 170.00 55 980 wellington 238 238 ________O_____ -1 -17.00 170.00 55 980 1 2 85
1972 SP MM 03:00:00 NR -16.87 170.13 247 246 ________P_____ -1 -16.87 170.13 55 980 1 4 40
1972 SP MM 06:00:00 NR -16.71 170.25 266 266 ________P_____ -1 -16.71 170.25 55 980 1 4 37
1972 SP MM 09:00:00 NR -16.55 170.38 277 277 ________P_____ -1 -16.55 170.38 55 980 4 37
1972 SP MM 12:00:00 NR -16.40 170.50 55 980 wellington 288 288 ________O_____ -1 -16.40 170.50 55 980 4 48
1972 SP MM 15:00:00 NR -16.30 170.67 309 309 ________P_____ -1 -16.30 170.67 51 982 4 58
1972 SP MM 18:00:00 NR -16.21 170.83 320 320 ________P_____ -1 -16.21 170.83 47 985 3 56
1972 SP MM 21:00:00 NR -16.11 170.95 331 331 ________P_____ -1 -16.11 170.95 43 987 3 39
1972 SP MM 1972-04-19 00:00:00 NR -16.00 171.00 40 990 wellington 343 343 ________O_____ -1 -16.00 171.00 40 990 3 0
1972 SP MM 03:00:00 NR -15.82 170.95 336 327 ________P_____ -1 -15.82 170.95 40 990 4 336
1972 SP MM 06:00:00 NR -15.63 170.82 330 322 ________P_____ -1 -15.63 170.82 40 990 5 324
1972 SP MM 09:00:00 NR -15.44 170.67 326 309 ________P_____ -1 -15.44 170.67 40 990 5 316
1972 SP MM 12:00:00 NR -15.30 170.50 40 990 wellington 309 299 ________O_____ -1 -15.30 170.50 40 990 4 311
1972 SP MM 15:00:00 NR -15.21 170.39 304 294 ________P_____ -1 -15.21 170.39 40 990 3 302
1972 SP MM 18:00:00 NR -15.16 170.27 294 284 ________P_____ -1 -15.16 170.27 40 990 2 282
1972 SP MM 21:00:00 NR -15.16 170.15 275 265 ________P_____ -1 -15.16 170.15 40 990 3 261
1972 SP MM 1972-04-20 00:00:00 NR -15.20 170.00 40 990 wellington 265 241 ________O_____ -1 -15.20 170.00 40 990 3 248
1972 SP MM 03:00:00 NR -15.29 169.83 241 217 ________P_____ -1 -15.29 169.83 37 991 4 240
1972 SP MM 06:00:00 NR -15.41 169.63 217 193 ________P_____ -1 -15.41 169.63 35 993 5 236
1972 SP MM 09:00:00 NR -15.55 169.42 193 164 ________P_____ -1 -15.55 169.42 32 995 5 235
1972 SP MM 12:00:00 NR -15.70 169.20 30 997 wellington 164 ________O_____ -1 -15.70 169.20 30 997 5 234